Time;durP1;ratioP1;P1;durP2;ratioP2;P2;SDS_P1;SDS_P2;PMS_P1;PMS_P2;Temp;Humidity;BMP_temperature;BMP_pressure;BME280_temperature;BME280_humidity;BME280_pressure;Samples;Min_cycle;Max_cycle;Signal;HPM_P1;HPM_P2
2024/04/06 00:02:06;;;;;;;8.52;0.98;;;;;;;8.23;56.66;101069.50;5004157;28;20037;-71
2024/04/06 00:04:35;;;;;;;8.15;1.30;;;;;;;8.19;57.06;101067.84;5013402;28;20116;-70
2024/04/06 00:07:01;;;;;;;8.82;1.17;;;;;;;8.29;56.49;101078.00;5001978;28;20025;-71
2024/04/06 00:09:26;;;;;;;6.18;1.08;;;;;;;8.28;57.15;101075.41;5014979;28;20479;-71
2024/04/06 00:11:52;;;;;;;4.30;1.00;;;;;;;8.39;56.66;101072.53;5009390;28;20419;-71
2024/04/06 00:14:20;;;;;;;9.77;1.05;;;;;;;8.19;57.37;101086.94;5007495;28;20144;-71
2024/04/06 00:16:46;;;;;;;6.20;1.58;;;;;;;8.41;56.57;101087.22;5002879;28;20693;-72
2024/04/06 00:19:12;;;;;;;8.68;1.35;;;;;;;8.26;57.30;101078.06;5007128;28;20037;-71
2024/04/06 00:21:37;;;;;;;12.57;1.73;;;;;;;8.36;57.09;101083.88;5005583;28;20876;-70
2024/04/06 00:24:04;;;;;;;6.07;0.80;;;;;;;8.37;57.28;101075.16;5003470;28;20048;-70
2024/04/06 00:26:29;;;;;;;8.40;1.10;;;;;;;8.07;58.19;101072.50;5007365;28;20051;-70
2024/04/06 00:28:55;;;;;;;6.43;0.82;;;;;;;8.04;58.26;101071.72;5009853;28;20037;-71
2024/04/06 00:31:21;;;;;;;6.13;0.85;;;;;;;8.07;58.13;101075.09;5012021;28;20055;-70
2024/04/06 00:33:47;;;;;;;8.82;0.88;;;;;;;8.11;58.35;101074.13;5008854;28;20048;-70
2024/04/06 00:36:12;;;;;;;8.10;1.55;;;;;;;8.23;58.28;101077.31;5019140;28;20033;-70
2024/04/06 00:38:38;;;;;;;12.73;1.80;;;;;;;8.40;57.41;101084.63;5010044;28;20041;-71
2024/04/06 00:41:03;;;;;;;10.60;1.05;;;;;;;8.25;58.09;101075.47;5004105;28;20498;-70
2024/04/06 00:43:31;;;;;;;8.75;1.10;;;;;;;8.33;58.00;101066.56;5006949;28;20697;-71
2024/04/06 00:45:57;;;;;;;10.65;1.88;;;;;;;8.13;58.32;101074.91;5010223;28;20642;-70
2024/04/06 00:48:22;;;;;;;11.40;1.42;;;;;;;8.09;58.39;101081.13;5005314;28;20740;-68
2024/04/06 00:50:49;;;;;;;8.82;0.82;;;;;;;8.23;58.06;101087.72;5007241;28;20136;-69
2024/04/06 00:53:15;;;;;;;6.15;0.93;;;;;;;8.20;58.28;101093.84;5003036;28;20037;-70
2024/04/06 00:55:41;;;;;;;12.15;1.92;;;;;;;8.53;57.09;101089.47;5009151;28;20457;-69
2024/04/06 00:58:06;;;;;;;13.00;1.13;;;;;;;8.25;58.17;101088.50;5010101;28;20080;-69
2024/04/06 01:00:32;;;;;;;10.40;0.70;;;;;;;8.22;57.98;101096.41;5021949;28;20049;-69
2024/04/06 01:02:57;;;;;;;5.85;1.08;;;;;;;8.28;57.93;101091.03;5008551;28;20712;-68
2024/04/06 01:05:25;;;;;;;11.25;1.10;;;;;;;8.41;57.40;101107.19;4996738;28;20476;-68
2024/04/06 01:07:51;;;;;;;4.45;0.50;;;;;;;8.34;57.43;101096.09;5011481;28;20040;-68
2024/04/06 01:10:16;;;;;;;11.45;1.15;;;;;;;8.32;57.60;101105.69;5003246;28;20419;-72
2024/04/06 01:12:43;;;;;;;14.18;1.10;;;;;;;8.49;56.97;101095.66;5016037;28;20655;-71
2024/04/06 01:15:09;;;;;;;5.85;1.17;;;;;;;8.44;57.07;101102.75;5006139;28;20487;-71
2024/04/06 01:17:34;;;;;;;8.68;2.58;;;;;;;8.40;57.54;101095.06;5015440;28;20040;-71
2024/04/06 01:20:00;;;;;;;5.68;1.15;;;;;;;8.48;57.16;101104.38;5007808;28;20052;-70
2024/04/06 01:22:26;;;;;;;11.45;0.75;;;;;;;8.52;57.10;101099.94;5014097;28;20560;-72
2024/04/06 01:24:51;;;;;;;5.25;0.73;;;;;;;8.61;56.41;101094.47;5027773;28;20804;-72
2024/04/06 01:27:17;;;;;;;4.60;0.80;;;;;;;8.42;57.03;101091.50;5008295;28;20052;-70
2024/04/06 01:29:43;;;;;;;4.07;1.05;;;;;;;8.20;57.83;101087.78;5009380;28;20033;-72
2024/04/06 01:32:08;;;;;;;7.25;0.75;;;;;;;8.29;58.06;101088.41;5009236;28;20047;-71
2024/04/06 01:34:34;;;;;;;10.82;1.15;;;;;;;8.43;57.34;101089.78;5018809;28;20073;-71
2024/04/06 01:36:59;;;;;;;5.95;0.82;;;;;;;8.44;57.24;101092.31;5010888;28;20513;-72
2024/04/06 01:39:25;;;;;;;7.00;0.50;;;;;;;8.36;57.58;101104.72;5011931;28;20033;-71
2024/04/06 01:41:50;;;;;;;10.27;0.77;;;;;;;8.38;57.19;101102.91;5016206;28;20999;-72
2024/04/06 01:44:16;;;;;;;5.85;0.70;;;;;;;8.38;57.53;101110.72;5004694;28;20390;-71
2024/04/06 01:46:41;;;;;;;14.32;1.02;;;;;;;8.20;57.92;101108.59;5008293;28;20036;-68
2024/04/06 01:49:07;;;;;;;3.83;0.70;;;;;;;8.38;57.64;101110.72;5021891;28;20075;-71
2024/04/06 01:51:33;;;;;;;2.53;1.05;;;;;;;8.45;57.27;101109.69;5013215;28;20029;-70
2024/04/06 01:53:58;;;;;;;4.47;0.90;;;;;;;8.47;57.33;101115.69;5012098;28;20040;-68
2024/04/06 01:56:26;;;;;;;9.07;1.80;;;;;;;8.07;58.53;101121.09;5008527;28;20032;-70
2024/04/06 01:58:52;;;;;;;7.13;0.68;;;;;;;8.46;57.22;101111.38;5013525;28;20045;-70
2024/04/06 02:01:17;;;;;;;7.03;0.98;;;;;;;8.13;58.30;101108.75;4991004;28;20091;-70
2024/04/06 02:03:43;;;;;;;9.60;1.27;;;;;;;8.35;57.63;101111.66;5011145;28;20782;-70
2024/04/06 02:06:11;;;;;;;4.97;0.70;;;;;;;8.43;57.54;101110.63;5007801;28;20268;-70
2024/04/06 02:08:37;;;;;;;5.55;0.82;;;;;;;8.33;57.48;101110.00;5011597;28;20423;-70
2024/04/06 02:11:04;;;;;;;9.23;0.98;;;;;;;7.99;58.31;101092.66;5014224;28;20452;-69
2024/04/06 02:13:30;;;;;;;10.25;0.98;;;;;;;8.21;58.14;101094.72;5011302;28;20427;-68
2024/04/06 02:15:55;;;;;;;9.15;0.93;;;;;;;8.27;57.63;101104.94;5015845;28;20024;-69
2024/04/06 02:18:21;;;;;;;3.55;0.55;;;;;;;8.53;57.24;101112.06;5005040;28;21247;-69
2024/04/06 02:20:46;;;;;;;10.10;1.98;;;;;;;8.08;58.39;101117.59;5016460;28;20033;-70
2024/04/06 02:23:12;;;;;;;7.13;0.52;;;;;;;8.48;57.33;101125.22;5004566;28;20765;-71
2024/04/06 02:25:40;;;;;;;11.70;1.20;;;;;;;8.23;58.20;101124.16;4998659;28;20025;-72
2024/04/06 02:28:05;;;;;;;8.45;1.90;;;;;;;8.49;56.95;101121.69;5007007;28;20055;-68
2024/04/06 02:30:31;;;;;;;7.03;1.15;;;;;;;8.53;57.21;101130.28;5010029;28;20192;-64
2024/04/06 02:32:57;;;;;;;11.25;0.90;;;;;;;8.40;57.76;101129.75;5012249;28;20100;-66
2024/04/06 02:35:23;;;;;;;7.05;1.25;;;;;;;8.50;57.51;101133.84;5001982;28;20055;-66
2024/04/06 02:37:49;;;;;;;7.38;0.75;;;;;;;8.31;58.01;101127.41;5012997;28;20271;-70
2024/04/06 02:40:15;;;;;;;7.40;1.10;;;;;;;8.56;57.24;101125.88;4985619;28;20359;-71
2024/04/06 02:42:41;;;;;;;11.82;1.60;;;;;;;8.54;57.21;101124.22;5012211;28;20541;-69
2024/04/06 02:45:10;;;;;;;10.65;1.60;;;;;;;8.38;57.34;101136.75;5006684;28;20633;-70
2024/04/06 02:47:36;;;;;;;5.40;1.15;;;;;;;8.65;56.97;101142.13;5013262;28;20037;-71
2024/04/06 02:50:02;;;;;;;3.72;1.30;;;;;;;8.29;58.08;101144.81;5012353;28;20048;-71
2024/04/06 02:52:28;;;;;;;8.65;0.93;;;;;;;8.22;58.08;101141.53;5005408;28;20069;-70
2024/04/06 02:54:54;;;;;;;4.93;0.90;;;;;;;8.32;57.97;101139.56;5012011;28;20891;-71
2024/04/06 02:57:22;;;;;;;5.43;0.68;;;;;;;8.48;57.40;101143.44;5006769;28;20033;-72
2024/04/06 02:59:48;;;;;;;4.72;1.38;;;;;;;8.45;57.31;101140.94;5014898;28;20032;-70
2024/04/06 03:02:13;;;;;;;9.65;0.70;;;;;;;8.34;57.87;101127.34;5005520;28;20359;-72
2024/04/06 03:04:40;;;;;;;13.82;1.05;;;;;;;8.32;57.82;101123.94;5013754;28;20036;-71
2024/04/06 03:07:07;;;;;;;8.18;1.02;;;;;;;8.08;58.61;101123.66;5010112;28;20059;-70
2024/04/06 03:09:35;;;;;;;4.63;0.93;;;;;;;8.07;58.69;101123.69;5012130;28;20040;-72
2024/04/06 03:12:04;;;;;;;6.35;1.17;;;;;;;8.15;58.12;101120.00;5011405;28;20040;-68
2024/04/06 03:14:29;;;;;;;12.68;1.45;;;;;;;8.08;58.18;101125.41;5003885;28;20768;-69
2024/04/06 03:16:55;;;;;;;9.20;1.42;;;;;;;7.98;58.74;101135.22;5012490;28;20031;-71
2024/04/06 03:19:20;;;;;;;8.98;0.77;;;;;;;8.05;58.14;101126.34;5008184;28;20261;-70
2024/04/06 03:21:46;;;;;;;8.60;1.63;;;;;;;7.73;59.20;101122.81;5012033;28;20145;-71
2024/04/06 03:24:11;;;;;;;5.40;1.35;;;;;;;7.82;58.95;101119.09;5004809;28;20051;-70
2024/04/06 03:26:37;;;;;;;7.72;1.95;;;;;;;7.86;59.09;101120.72;5011397;28;20926;-71
2024/04/06 03:29:02;;;;;;;6.68;1.10;;;;;;;7.92;58.89;101114.53;5015017;28;20072;-71
2024/04/06 03:31:29;;;;;;;6.40;1.13;;;;;;;7.83;59.20;101114.75;5007602;28;20040;-71
2024/04/06 03:33:54;;;;;;;10.95;1.38;;;;;;;8.17;58.49;101098.28;5012007;28;20033;-72
2024/04/06 03:36:20;;;;;;;4.05;1.20;;;;;;;8.38;57.38;101107.25;5006257;28;20086;-69
2024/04/06 03:38:45;;;;;;;3.45;0.50;;;;;;;8.41;57.18;101096.78;5012617;28;20491;-69
2024/04/06 03:41:11;;;;;;;5.80;1.27;;;;;;;8.44;56.94;101102.75;5010892;28;20033;-70
2024/04/06 03:43:36;;;;;;;7.90;0.70;;;;;;;8.46;57.22;101093.13;5008698;28;20053;-68
2024/04/06 03:46:01;;;;;;;3.97;0.70;;;;;;;8.50;57.37;101092.16;5008820;28;20033;-69
2024/04/06 03:48:30;;;;;;;7.10;0.93;;;;;;;8.47;57.59;101097.47;5001467;28;20041;-70
2024/04/06 03:50:56;;;;;;;7.22;0.70;;;;;;;8.60;57.02;101092.75;5015680;28;20172;-70
2024/04/06 03:53:33;;;;;;;8.95;1.65;;;;;;;8.55;57.26;101095.47;5001993;28;20041;-71
2024/04/06 03:55:59;;;;;;;9.45;1.80;;;;;;;8.55;57.64;101111.13;5013216;28;20082;-71
2024/04/06 03:58:25;;;;;;;5.85;1.58;;;;;;;8.48;57.63;101098.31;5003781;28;20470;-70
2024/04/06 04:00:51;;;;;;;7.25;1.15;;;;;;;8.75;56.95;101091.50;5023354;28;20926;-71
2024/04/06 04:03:16;;;;;;;5.63;1.42;;;;;;;8.82;56.74;101077.38;5015039;28;20434;-70
2024/04/06 04:05:42;;;;;;;9.05;2.40;;;;;;;8.71;56.89;101085.50;5035969;28;20033;-68
2024/04/06 04:08:07;;;;;;;7.57;0.90;;;;;;;8.83;56.65;101073.91;5029751;28;20078;-71
2024/04/06 04:10:34;;;;;;;5.80;0.68;;;;;;;8.93;56.44;101066.66;5015008;28;21178;-69
2024/04/06 04:13:00;;;;;;;12.00;1.63;;;;;;;8.92;56.28;101072.78;5014130;28;20045;-69
2024/04/06 04:15:25;;;;;;;10.25;1.60;;;;;;;8.96;56.30;101079.56;5007159;28;20048;-72
2024/04/06 04:17:51;;;;;;;5.65;1.23;;;;;;;9.00;56.30;101075.13;5014301;28;20227;-69
2024/04/06 04:20:16;;;;;;;6.15;0.90;;;;;;;9.05;56.13;101078.44;5006067;28;20056;-71
2024/04/06 04:22:42;;;;;;;11.80;1.02;;;;;;;9.02;55.99;101062.91;5010681;28;20083;-71
2024/04/06 04:25:07;;;;;;;6.72;1.15;;;;;;;8.98;56.48;101069.97;5011205;28;20056;-69
2024/04/06 04:27:35;;;;;;;8.10;1.00;;;;;;;9.09;56.21;101078.31;5004962;28;21047;-70
2024/04/06 04:30:00;;;;;;;10.80;1.40;;;;;;;9.05;56.13;101058.44;5012590;28;20112;-71
2024/04/06 04:32:26;;;;;;;8.18;1.45;;;;;;;9.11;55.96;101049.59;5007920;28;20047;-70
2024/04/06 04:34:53;;;;;;;6.72;0.82;;;;;;;9.09;55.86;101040.94;5011490;28;20025;-70
2024/04/06 04:37:19;;;;;;;6.70;1.65;;;;;;;9.09;55.82;101054.84;5001242;28;20091;-71
2024/04/06 04:39:44;;;;;;;6.13;0.70;;;;;;;8.94;56.24;101083.97;5014140;28;20073;-70
2024/04/06 04:42:10;;;;;;;7.57;0.70;;;;;;;9.03;56.28;101103.72;5010815;28;20227;-71
2024/04/06 04:44:36;;;;;;;9.15;0.82;;;;;;;8.66;57.60;101121.25;5006954;28;20726;-70
2024/04/06 04:47:01;;;;;;;6.88;0.95;;;;;;;8.59;57.59;101145.75;5015030;28;20029;-68
2024/04/06 04:49:27;;;;;;;5.43;0.80;;;;;;;8.92;56.70;101149.22;5007538;28;20194;-68
2024/04/06 04:51:53;;;;;;;4.00;0.77;;;;;;;8.66;57.28;101143.84;5031058;28;20028;-69
2024/04/06 04:54:19;;;;;;;4.93;1.00;;;;;;;8.66;57.32;101149.06;5005905;28;20053;-69
2024/04/06 04:56:44;;;;;;;5.60;0.95;;;;;;;8.72;57.09;101154.16;5015701;28;21209;-71
2024/04/06 04:59:09;;;;;;;7.05;0.93;;;;;;;8.43;58.17;101153.16;5017610;28;20685;-70
2024/04/06 05:01:35;;;;;;;2.70;0.70;;;;;;;8.45;58.31;101151.34;5010154;28;21120;-70
2024/04/06 05:04:00;;;;;;;6.85;1.77;;;;;;;8.31;58.81;101153.44;5014987;28;20037;-71
2024/04/06 05:06:26;;;;;;;8.65;0.85;;;;;;;8.81;57.51;101147.78;5006730;28;20032;-72
2024/04/06 05:08:51;;;;;;;6.43;1.25;;;;;;;8.80;57.38;101146.94;5015742;28;20497;-71
2024/04/06 05:11:17;;;;;;;6.15;0.82;;;;;;;8.94;57.08;101150.03;5016608;28;20072;-69
2024/04/06 05:13:43;;;;;;;6.00;1.67;;;;;;;8.83;57.66;101149.47;5023692;28;20736;-68
2024/04/06 05:16:08;;;;;;;7.88;1.52;;;;;;;8.97;56.95;101154.28;5017708;28;20118;-70
2024/04/06 05:18:34;;;;;;;9.10;1.17;;;;;;;8.92;56.86;101156.19;5006533;28;20041;-68
2024/04/06 05:21:00;;;;;;;2.58;0.93;;;;;;;8.82;57.10;101152.97;5017343;28;20029;-69
2024/04/06 05:23:27;;;;;;;8.75;1.65;;;;;;;8.71;57.54;101148.06;5005770;28;20268;-71
2024/04/06 05:25:55;;;;;;;4.30;1.50;;;;;;;8.72;57.65;101151.53;5015676;28;20525;-71
2024/04/06 05:28:23;;;;;;;3.33;1.15;;;;;;;8.78;57.84;101146.13;5006522;28;20102;-69
2024/04/06 05:30:50;;;;;;;7.95;1.67;;;;;;;8.99;57.09;101142.06;5016684;28;20037;-70
2024/04/06 05:33:19;;;;;;;8.30;1.40;;;;;;;9.00;57.13;101148.97;5028580;28;20049;-69
2024/04/06 05:35:47;;;;;;;11.52;1.38;;;;;;;9.07;56.99;101155.72;5000276;28;20044;-69
2024/04/06 05:38:14;;;;;;;4.45;1.77;;;;;;;9.44;56.77;101153.78;5001012;28;20052;-69
2024/04/06 05:40:40;;;;;;;4.03;1.23;;;;;;;9.65;55.94;101136.59;5022769;28;20217;-70
2024/04/06 05:43:07;;;;;;;2.67;1.35;;;;;;;9.99;55.27;101131.13;5021461;28;20049;-70
2024/04/06 05:45:32;;;;;;;4.75;1.80;;;;;;;10.44;54.68;101125.25;4999848;28;20119;-70
2024/04/06 05:48:03;;;;;;;2.13;1.70;;;;;;;10.87;53.55;101135.97;5014506;28;21790;-69
2024/04/06 05:50:32;;;;;;;7.18;1.40;;;;;;;11.23;52.36;101134.56;5005954;28;20025;-71
2024/04/06 05:52:58;;;;;;;4.10;2.03;;;;;;;11.75;51.58;101129.00;5014046;28;20041;-69
2024/04/06 05:55:24;;;;;;;9.27;1.52;;;;;;;12.01;49.96;101117.47;5003690;28;20569;-69
2024/04/06 05:57:51;;;;;;;6.68;1.63;;;;;;;12.20;49.95;101133.28;5029373;28;20849;-70
2024/04/06 06:00:17;;;;;;;6.55;1.80;;;;;;;12.80;49.30;101137.69;5013755;28;20641;-70
2024/04/06 06:02:43;;;;;;;8.73;1.75;;;;;;;13.09;47.63;101145.09;5006834;28;20738;-70
2024/04/06 06:05:09;;;;;;;4.53;2.08;;;;;;;13.36;47.16;101151.72;5011074;28;20040;-69
2024/04/06 06:07:34;;;;;;;5.85;2.10;;;;;;;13.98;45.91;101147.84;5005798;28;20516;-71
2024/04/06 06:10:00;;;;;;;7.57;1.95;;;;;;;13.54;47.34;101150.88;5015346;28;20526;-69
2024/04/06 06:12:26;;;;;;;8.30;1.55;;;;;;;13.44;47.83;101158.31;5006843;28;20052;-70
2024/04/06 06:14:52;;;;;;;5.20;1.48;;;;;;;13.21;47.51;101164.66;5012804;28;20409;-71
2024/04/06 06:17:19;;;;;;;6.38;1.13;;;;;;;13.23;47.66;101167.22;5010972;28;20130;-71
2024/04/06 06:19:44;;;;;;;8.85;1.98;;;;;;;13.09;48.56;101165.22;5003916;28;20113;-71
2024/04/06 06:22:10;;;;;;;5.70;2.55;;;;;;;12.70;49.20;101164.34;5010887;28;20033;-72
2024/04/06 06:24:35;;;;;;;5.70;1.90;;;;;;;12.43;49.60;101157.66;5005228;28;20073;-71
2024/04/06 06:27:01;;;;;;;3.67;2.22;;;;;;;12.01;51.07;101158.56;5011928;28;20099;-70
2024/04/06 06:29:26;;;;;;;3.40;2.30;;;;;;;11.29;52.95;101153.56;5006506;28;20049;-70
2024/04/06 06:31:52;;;;;;;5.13;2.72;;;;;;;11.40;53.04;101157.47;5022162;28;20037;-70
2024/04/06 06:34:20;;;;;;;7.70;2.88;;;;;;;11.38;53.15;101154.03;5017717;28;20061;-70
2024/04/06 06:36:49;;;;;;;6.50;2.20;;;;;;;11.34;53.78;101151.63;5002211;28;20502;-71
2024/04/06 06:39:15;;;;;;;8.82;2.55;;;;;;;11.24;54.21;101151.09;5014185;28;20139;-70
2024/04/06 06:41:42;;;;;;;6.03;2.05;;;;;;;11.32;54.35;101143.81;5004258;28;20307;-69
2024/04/06 06:44:08;;;;;;;7.45;3.15;;;;;;;11.42;54.14;101150.41;5013436;28;20037;-70
2024/04/06 06:46:34;;;;;;;8.75;2.45;;;;;;;11.51;54.17;101151.81;5005502;28;20040;-70
2024/04/06 06:49:00;;;;;;;6.43;2.22;;;;;;;11.55;54.39;101157.75;5007555;28;20079;-71
2024/04/06 06:51:26;;;;;;;5.50;3.15;;;;;;;11.65;54.19;101141.63;5009021;28;20032;-71
2024/04/06 06:53:52;;;;;;;5.70;2.80;;;;;;;11.63;54.41;101132.97;4993214;28;20459;-72
2024/04/06 06:56:20;;;;;;;7.60;3.17;;;;;;;11.54;54.89;101137.75;5028236;28;20017;-70
2024/04/06 06:58:46;;;;;;;6.43;3.65;;;;;;;11.75;55.00;101134.25;5001294;28;21292;-70
2024/04/06 07:01:11;;;;;;;12.32;3.30;;;;;;;11.79;54.98;101141.09;5016238;28;20039;-71
2024/04/06 07:03:37;;;;;;;7.78;3.28;;;;;;;11.77;55.63;101135.06;4982125;28;20041;-68
2024/04/06 07:06:07;;;;;;;8.10;3.40;;;;;;;12.12;54.95;101138.00;5012787;28;20032;-70
2024/04/06 07:08:32;;;;;;;7.22;3.33;;;;;;;12.18;54.69;101144.72;4993771;28;20336;-69
2024/04/06 07:11:04;;;;;;;7.07;3.47;;;;;;;12.36;54.50;101148.38;5011889;28;20546;-67
2024/04/06 07:13:30;;;;;;;8.65;3.10;;;;;;;12.48;53.90;101148.66;5003341;28;20165;-69
2024/04/06 07:16:08;;;;;;;8.77;3.03;;;;;;;13.01;53.58;101152.47;5009570;28;20600;-69
2024/04/06 07:18:34;;;;;;;5.05;3.25;;;;;;;13.33;51.94;101148.31;4993213;28;20056;-68
2024/04/06 07:21:00;;;;;;;15.07;3.30;;;;;;;13.41;51.67;101145.34;5011304;28;20036;-68
2024/04/06 07:23:27;;;;;;;6.78;2.72;;;;;;;13.39;51.09;101154.22;5012438;28;20037;-68
2024/04/06 07:25:55;;;;;;;4.20;2.55;;;;;;;13.34;52.52;101164.94;5019345;28;20033;-67
2024/04/06 07:28:21;;;;;;;3.35;2.55;;;;;;;13.67;51.40;101172.16;5012635;28;20075;-68
2024/04/06 07:30:47;;;;;;;5.50;2.75;;;;;;;13.71;50.91;101173.72;5003560;28;21747;-68
2024/04/06 07:33:13;;;;;;;5.63;2.20;;;;;;;14.08;51.12;101166.66;5011503;28;20064;-69
2024/04/06 07:35:39;;;;;;;5.03;3.85;;;;;;;14.10;50.69;101175.31;4998286;28;20029;-68
2024/04/06 07:38:05;;;;;;;2.13;1.80;;;;;;;16.93;45.20;101180.66;4988992;28;20082;-68
2024/04/06 07:40:31;;;;;;;5.22;3.10;;;;;;;18.02;42.62;101166.59;5002808;28;20037;-69
2024/04/06 07:42:57;;;;;;;5.13;1.88;;;;;;;20.07;38.77;101176.81;5003760;28;20277;-68
2024/04/06 07:45:23;;;;;;;4.40;2.30;;;;;;;21.13;34.94;101159.78;5007334;28;20055;-69
2024/04/06 07:47:49;;;;;;;3.97;1.73;;;;;;;21.00;34.90;101169.69;4995714;28;21262;-71
2024/04/06 07:50:15;;;;;;;2.05;1.45;;;;;;;22.33;34.04;101181.81;5016612;28;20032;-70
2024/04/06 07:52:41;;;;;;;2.80;1.38;;;;;;;22.61;33.44;101179.47;4991334;28;20135;-70
2024/04/06 07:55:07;;;;;;;4.63;1.88;;;;;;;21.85;33.78;101179.66;5020496;28;20594;-69
2024/04/06 07:57:32;;;;;;;3.17;1.50;;;;;;;17.12;43.07;101180.38;4999068;28;20122;-69
2024/04/06 08:00:01;;;;;;;4.72;1.60;;;;;;;16.92;43.19;101178.97;5004133;28;20029;-70
2024/04/06 08:02:27;;;;;;;4.43;0.90;;;;;;;16.63;44.19;101171.03;5015418;28;20360;-70
2024/04/06 08:04:55;;;;;;;3.65;2.00;;;;;;;15.90;46.35;101163.03;4998780;28;20776;-68
2024/04/06 08:07:22;;;;;;;4.15;1.30;;;;;;;16.49;45.23;101155.16;5009231;28;20045;-70
2024/04/06 08:09:48;;;;;;;2.45;1.42;;;;;;;17.80;42.85;101156.59;4998086;28;20107;-69
2024/04/06 08:12:13;;;;;;;2.30;0.80;;;;;;;19.33;40.96;101162.84;5008792;28;20048;-70
2024/04/06 08:14:39;;;;;;;4.82;1.30;;;;;;;19.24;39.31;101155.56;4999318;28;20502;-70
2024/04/06 08:17:04;;;;;;;5.63;1.25;;;;;;;20.57;37.04;101151.81;5009879;28;20049;-67
2024/04/06 08:19:30;;;;;;;1.85;1.50;;;;;;;22.23;34.16;101128.53;5005011;28;20051;-68
2024/04/06 08:21:56;;;;;;;2.95;0.88;;;;;;;22.38;33.75;101137.88;4986471;28;20132;-69
2024/04/06 08:24:21;;;;;;;3.63;1.15;;;;;;;20.16;37.21;101156.69;5013354;28;20033;-70
2024/04/06 08:26:47;;;;;;;1.70;1.10;;;;;;;21.40;36.41;101139.88;5001494;28;20071;-68
2024/04/06 08:29:13;;;;;;;4.80;1.40;;;;;;;21.11;37.39;101133.34;5014105;28;20357;-68
2024/04/06 08:31:38;;;;;;;2.78;1.27;;;;;;;22.85;33.76;101129.38;5005736;28;20686;-68
2024/04/06 08:34:04;;;;;;;7.10;1.00;;;;;;;22.96;33.50;101110.63;5010375;28;20688;-67
2024/04/06 08:36:29;;;;;;;5.88;1.02;;;;;;;22.99;33.16;101120.16;5008655;28;20044;-70
2024/04/06 08:38:54;;;;;;;3.33;1.42;;;;;;;22.87;33.70;101121.25;4998137;28;20508;-67
2024/04/06 08:41:22;;;;;;;2.13;0.80;;;;;;;22.32;34.19;101108.25;5011474;28;20727;-67
2024/04/06 08:43:54;;;;;;;2.97;1.50;;;;;;;21.61;34.72;101105.41;5002277;28;20494;-67
2024/04/06 08:46:21;;;;;;;4.85;1.17;;;;;;;21.58;35.19;101122.47;5007023;28;20041;-67
2024/04/06 08:48:49;;;;;;;3.83;1.02;;;;;;;22.02;35.54;101120.53;5001382;28;20036;-68
2024/04/06 08:51:17;;;;;;;6.10;1.15;;;;;;;22.05;35.17;101106.97;5014520;28;20586;-68
2024/04/06 08:53:43;;;;;;;3.30;1.45;;;;;;;21.01;35.71;101107.63;5001470;28;20276;-68
2024/04/06 08:56:09;;;;;;;3.22;1.25;;;;;;;20.57;37.75;101107.53;5012952;28;20232;-68
2024/04/06 08:58:35;;;;;;;3.80;1.48;;;;;;;18.73;42.14;101116.78;5010108;28;20045;-68
2024/04/06 09:01:03;;;;;;;4.50;1.42;;;;;;;19.84;38.75;101116.72;5010896;28;21015;-68
2024/04/06 09:03:29;;;;;;;1.98;0.68;;;;;;;19.94;38.81;101106.22;5011464;28;20301;-70
2024/04/06 09:05:54;;;;;;;1.83;0.85;;;;;;;18.65;41.33;101105.88;5003925;28;20045;-67
2024/04/06 09:08:20;;;;;;;1.77;1.00;;;;;;;20.05;39.76;101120.34;5011930;28;20654;-66
2024/04/06 09:10:54;;;;;;;2.00;0.98;;;;;;;20.10;39.16;101110.25;5005532;28;20040;-67
2024/04/06 09:13:20;;;;;;;;;;;;;;;19.99;38.90;101094.28;5012728;28;20041;-68
2024/04/06 09:15:45;;;;;;;3.75;0.85;;;;;;;18.80;39.99;101104.78;5004549;28;19924;-68
2024/04/06 09:18:11;;;;;;;2.72;0.68;;;;;;;19.59;40.15;101097.34;5009924;28;20131;-68
2024/04/06 09:20:36;;;;;;;4.70;0.63;;;;;;;19.71;39.04;101091.09;5011833;28;20040;-69
2024/04/06 09:23:02;;;;;;;1.85;0.73;;;;;;;19.64;39.23;101084.56;4984223;28;20065;-70
2024/04/06 09:25:29;;;;;;;1.02;0.30;;;;;;;19.55;39.49;101085.28;5007277;28;20037;-72
2024/04/06 09:27:55;;;;;;;2.03;0.40;;;;;;;18.33;41.48;101089.63;4997245;28;20064;-68
2024/04/06 09:30:39;;;;;;;1.70;0.50;;;;;;;19.64;39.90;101100.47;5008180;28;20931;-68
2024/04/06 09:33:08;;;;;;;2.15;0.50;;;;;;;20.59;37.91;101088.81;5007265;28;20049;-68
2024/04/06 09:35:38;;;;;;;3.80;0.70;;;;;;;19.84;38.54;101098.13;5007842;28;20033;-67
2024/04/06 09:38:05;;;;;;;1.17;0.52;;;;;;;18.86;40.35;101104.34;5022063;28;20033;-68
2024/04/06 09:40:32;;;;;;;4.82;0.80;;;;;;;19.38;40.03;101110.34;5008110;28;20041;-67
2024/04/06 09:42:58;;;;;;;3.20;0.63;;;;;;;19.36;39.60;101112.25;5005355;28;20044;-68
2024/04/06 09:45:25;;;;;;;2.42;0.60;;;;;;;18.39;41.42;101105.91;5012734;28;20032;-67
2024/04/06 09:47:55;;;;;;;3.33;0.65;;;;;;;18.36;41.74;101098.16;5002370;28;20048;-67
2024/04/06 09:50:21;;;;;;;2.20;0.60;;;;;;;19.15;40.68;101092.66;5013709;28;20380;-67
2024/04/06 09:52:47;;;;;;;1.48;0.40;;;;;;;19.13;40.89;101082.16;5004131;28;20048;-67
2024/04/06 09:55:12;;;;;;;1.75;0.55;;;;;;;18.86;40.18;101083.16;5011947;28;20067;-68
2024/04/06 09:57:38;;;;;;;3.25;0.70;;;;;;;18.85;41.07;101070.03;5009001;28;20414;-68
2024/04/06 10:00:05;;;;;;;2.08;0.50;;;;;;;18.64;41.79;101072.44;5006140;28;20045;-68
2024/04/06 10:02:34;;;;;;;3.97;1.90;;;;;;;19.12;41.04;101067.19;5009599;28;20502;-67
2024/04/06 10:05:01;;;;;;;3.03;0.90;;;;;;;18.57;41.53;101065.88;5003946;28;21550;-68
2024/04/06 10:07:28;;;;;;;2.20;0.75;;;;;;;18.47;42.42;101065.66;5025331;28;20106;-68
2024/04/06 10:10:02;;;;;;;1.17;0.55;;;;;;;19.09;42.16;101056.84;5020477;28;20021;-67
2024/04/06 10:12:45;;;;;;;2.80;0.82;;;;;;;19.15;41.77;101045.81;5009122;28;20211;-68
2024/04/06 10:15:15;;;;;;;1.42;0.52;;;;;;;18.87;41.67;101041.63;5010724;28;20386;-67
2024/04/06 10:17:49;;;;;;;1.23;0.43;;;;;;;18.46;42.32;101035.72;5009865;28;20056;-67
2024/04/06 10:20:21;;;;;;;2.00;0.68;;;;;;;18.33;42.71;101034.06;5010711;28;20118;-67
2024/04/06 10:22:54;;;;;;;6.10;0.52;;;;;;;18.04;43.08;101021.88;5003440;28;20086;-68
2024/04/06 10:25:34;;;;;;;2.08;0.50;;;;;;;17.88;43.88;101020.41;5012275;28;20033;-68
2024/04/06 10:28:01;;;;;;;1.70;0.80;;;;;;;17.63;44.12;101022.91;5005650;28;20037;-68
2024/04/06 10:30:27;;;;;;;2.92;0.40;;;;;;;18.03;43.31;101014.06;5013971;28;20064;-68
2024/04/06 10:32:53;;;;;;;2.38;0.60;;;;;;;17.66;43.80;101008.66;5004620;28;20133;-67
2024/04/06 10:35:18;;;;;;;1.45;0.57;;;;;;;17.98;43.80;101006.44;5007622;28;20083;-68
2024/04/06 10:37:46;;;;;;;2.70;0.65;;;;;;;17.80;43.22;100986.56;5002160;28;20044;-69
2024/04/06 10:40:13;;;;;;;1.17;0.75;;;;;;;18.16;42.93;100992.88;5010816;28;21039;-67
2024/04/06 10:42:39;;;;;;;2.30;0.43;;;;;;;18.13;43.13;100988.66;5006809;28;20045;-68
2024/04/06 10:45:05;;;;;;;1.98;0.50;;;;;;;18.18;42.80;100990.97;5005255;28;20536;-67
2024/04/06 10:47:34;;;;;;;0.93;0.30;;;;;;;18.55;42.50;100988.38;5007585;28;20101;-68
2024/04/06 10:50:02;;;;;;;1.23;0.60;;;;;;;18.58;42.13;100977.56;5005497;28;20060;-67
2024/04/06 10:52:28;;;;;;;1.80;0.40;;;;;;;18.83;41.55;100966.88;5025199;28;20284;-68
2024/04/06 10:54:54;;;;;;;4.95;1.15;;;;;;;19.37;40.83;100948.78;5005238;28;20043;-67
2024/04/06 10:57:22;;;;;;;1.17;0.50;;;;;;;19.42;39.68;100941.34;5006364;28;20554;-70
2024/04/06 10:59:48;;;;;;;2.10;1.02;;;;;;;20.00;39.71;100931.53;5007297;28;20044;-68
2024/04/06 11:02:15;;;;;;;3.65;0.32;;;;;;;20.17;39.85;100931.97;5005218;28;20141;-68
2024/04/06 11:04:40;;;;;;;1.50;0.25;;;;;;;20.44;38.84;100921.84;5009968;28;20412;-68
2024/04/06 11:07:06;;;;;;;4.13;1.55;;;;;;;20.17;38.40;100921.34;5002996;28;20766;-67
2024/04/06 11:09:33;;;;;;;1.40;0.40;;;;;;;20.39;39.23;100917.84;5009475;28;20040;-68
2024/04/06 11:12:01;;;;;;;3.35;0.43;;;;;;;20.04;39.56;100922.34;5003799;28;20088;-68
2024/04/06 11:14:26;;;;;;;1.35;0.35;;;;;;;19.68;39.24;100913.69;5009589;28;20033;-68
2024/04/06 11:16:53;;;;;;;0.50;0.20;;;;;;;20.15;38.96;100908.25;5008277;28;20244;-69
2024/04/06 11:19:18;;;;;;;1.60;0.20;;;;;;;20.31;39.13;100897.25;5007682;28;20067;-69
2024/04/06 11:21:44;;;;;;;2.25;0.40;;;;;;;20.32;37.98;100912.19;5012978;28;20033;-69
2024/04/06 11:24:09;;;;;;;2.35;0.20;;;;;;;20.66;38.50;100898.81;5000616;28;20510;-70
2024/04/06 11:26:36;;;;;;;2.45;0.32;;;;;;;20.85;38.25;100893.69;5009778;28;20037;-71